Darstellungsparameter: Aktuell verwendete Einstellungen:
Skalierung der Graphiken ... ?
xyx+y,   Skalierungsfaktor:      Skalierung: Modus: x, Faktor: 1
Darstellungszeitraum ... ?
Vom - - bis: - -   Zeitraum: 17.06.2008 - 19.06.2008
Min/Max/Avg-Anzeige ... ?
Zeige MMA aktuell
Zeige MMA Monat
Zeige MMA alles
Zeige --A aktuell
Zeige --A Monat
Zeige --A alles
Keine MMA-Anzeige
MMA:
Keine MMA-Graphiken
MMA-Basis: 17.06.2008 - 19.06.2008
Quicknavigation für Darstellung... ?
Tage:      1T, 2T, 3T, 5T -1T -2T -3T -5T +1T +2T +3T +5T
Wochen: 1W, 2W, 3W -1W -2W -3W +1W +2W +3W
Monate: 1M, 3M, 6M -1M -3M -6M +1M +3M +6M
Jahre:    1J, 3J, 5J, 10J -1J -3J -5J -10J +1J +3J +5J +10J
Nutze für die Darstellung ... ?
Originaldaten oder Mittelwerte auf ...
Stundenbasis Tagesbasis Wochenbasis
Monatsbasis Jahresbasis      Datenbasis: Original-Daten
Darstellen als:
Statistik (Auto) Statistik J:M      Darstellung:
Zur Graphik,    zurück zur Übersicht aller Sensoren.
 
Tabellarische Datenbersicht: ?
 
Sensor: Nr:Datum:Temp:Abs-Feuchte:Windchill:Wind:
Aussen-T/F 1 17-06-2008 00:09:02 13.4 C 6.63 g/m*3 13.4 C 0 km/h
2 17-06-2008 00:21:02 13 C 6.69 g/m*3 13 C 0 km/h
3 17-06-2008 00:33:02 12.8 C 6.61 g/m*3 12.8 C 0 km/h
4 17-06-2008 00:45:02 12.6 C 6.31 g/m*3 12.6 C 0 km/h
5 17-06-2008 00:57:03 12.3 C 6.52 g/m*3 12.3 C 0 km/h
6 17-06-2008 01:09:03 12.4 C 6.77 g/m*3 12.4 C 0 km/h
7 17-06-2008 01:21:03 12.4 C 6.66 g/m*3 12.4 C 0 km/h
8 17-06-2008 01:33:03 12.2 C 6.58 g/m*3 12.2 C 0 km/h
9 17-06-2008 01:45:03 11.9 C 6.57 g/m*3 11.9 C 0 km/h
10 17-06-2008 01:57:03 11.8 C 6.74 g/m*3 11.8 C 0 km/h
11 17-06-2008 02:09:03 11.6 C 6.65 g/m*3 11.6 C 0 km/h
12 17-06-2008 02:21:03 11.3 C 6.63 g/m*3 11.3 C 0 km/h
13 17-06-2008 02:33:03 10.9 C 6.96 g/m*3 10.9 C 0 km/h
14 17-06-2008 02:45:03 10.7 C 6.97 g/m*3 10.7 C 0 km/h
15 17-06-2008 02:57:03 10.6 C 6.83 g/m*3 10.6 C 0 km/h
16 17-06-2008 03:09:03 10.5 C 6.98 g/m*3 10.5 C 0 km/h
17 17-06-2008 03:21:03 10.4 C 7.04 g/m*3 10.4 C 0 km/h
18 17-06-2008 03:33:03 10.3 C 7.09 g/m*3 10.3 C 0 km/h
19 17-06-2008 03:45:03 10.1 C 6.9 g/m*3 10.1 C 0 km/h
20 17-06-2008 03:57:03 10.1 C 6.81 g/m*3 10.1 C 0 km/h
21 17-06-2008 04:09:03 10 C 6.77 g/m*3 10 C 0 km/h
22 17-06-2008 04:21:03 9.7 C 6.82 g/m*3 9.7 C 0 km/h
23 17-06-2008 04:33:03 9.5 C 6.83 g/m*3 9.5 C 0 km/h
24 17-06-2008 04:45:03 9.5 C 6.92 g/m*3 9.5 C 0 km/h
25 17-06-2008 04:57:04 9.3 C 6.92 g/m*3 9.3 C 0 km/h
Sensor: Nr:Datum:Temp:Abs-Feuchte:Windchill:Wind:
Aussen-T/F 26 17-06-2008 05:09:04 9.1 C 6.92 g/m*3 9.1 C 0 km/h
27 17-06-2008 05:21:04 8.9 C 7.01 g/m*3 8.9 C 0 km/h
28 17-06-2008 05:33:04 8.9 C 7.1 g/m*3 8.9 C 0 km/h
29 17-06-2008 05:45:04 8.8 C 7.14 g/m*3 8.8 C 0 km/h
30 17-06-2008 05:57:04 8.9 C 7.18 g/m*3 8.9 C 0 km/h
31 17-06-2008 06:09:04 8.9 C 7.18 g/m*3 8.9 C 0 km/h
32 17-06-2008 06:21:04 8.9 C 7.27 g/m*3 8.9 C 0 km/h
33 17-06-2008 06:33:04 9.1 C 7.19 g/m*3 9.1 C 0 km/h
34 17-06-2008 06:45:04 9.2 C 7.23 g/m*3 9.2 C 0 km/h
35 17-06-2008 06:57:04 9.3 C 7.28 g/m*3 9.3 C 0 km/h
36 17-06-2008 07:09:03 9.3 C 7.28 g/m*3 9.3 C 0 km/h
37 17-06-2008 07:21:03 9.5 C 7.37 g/m*3 9.5 C 0 km/h
38 17-06-2008 07:33:03 9.6 C 7.42 g/m*3 9.6 C 0 km/h
39 17-06-2008 07:45:02 9.9 C 7.47 g/m*3 9.9 C 0 km/h
40 17-06-2008 07:57:03 10.2 C 7.33 g/m*3 10.2 C 0 km/h
41 17-06-2008 08:09:02 10.7 C 7.46 g/m*3 10.7 C 0 km/h
42 17-06-2008 08:21:02 11.3 C 7.45 g/m*3 11.3 C 0 km/h
43 17-06-2008 08:33:02 11.5 C 7.44 g/m*3 11.5 C 0 km/h
44 17-06-2008 08:45:01 11.9 C 7.52 g/m*3 11.9 C 0 km/h
45 17-06-2008 08:57:01 12.4 C 7.65 g/m*3 12.4 C 0 km/h
46 17-06-2008 09:09:01 12.7 C 7.68 g/m*3 12.7 C 0 km/h
47 17-06-2008 09:21:02 13.6 C 7.53 g/m*3 13.6 C 0 km/h
48 17-06-2008 09:33:01 14.6 C 7.38 g/m*3 14.6 C 0 km/h
49 17-06-2008 09:45:02 15.6 C 7.18 g/m*3 15.6 C 0 km/h
50 17-06-2008 09:57:02 16.2 C 7.03 g/m*3 16.2 C 0 km/h
Sensor: Nr:Datum:Temp:Abs-Feuchte:Windchill:Wind:
Aussen-T/F 51 17-06-2008 10:09:01 16.8 C 7.01 g/m*3 16.8 C 0 km/h
52 17-06-2008 10:21:02 17.4 C 7.11 g/m*3 17.4 C 0 km/h
53 17-06-2008 10:33:02 18.4 C 7.08 g/m*3 18.4 C 0 km/h
54 17-06-2008 10:45:02 18.7 C 6.88 g/m*3 18.7 C 0 km/h
55 17-06-2008 10:57:02 19.1 C 6.88 g/m*3 19.1 C 0 km/h
56 17-06-2008 11:09:01 19.2 C 6.76 g/m*3 19.2 C 0 km/h
57 17-06-2008 11:21:02 20 C 7.09 g/m*3 20 C 0 km/h
58 17-06-2008 11:33:02 20.5 C 6.94 g/m*3 20.5 C 0 km/h
59 17-06-2008 11:45:02 21.6 C 6.83 g/m*3 21.6 C 0 km/h
60 17-06-2008 11:57:02 21.9 C 6.56 g/m*3 21.9 C 0 km/h
61 17-06-2008 12:09:02 21.3 C 6.52 g/m*3 21.3 C 0 km/h
62 17-06-2008 12:21:02 20.9 C 6.37 g/m*3 20.9 C 0 km/h
63 17-06-2008 12:33:03 20.1 C 6.26 g/m*3 20.1 C 0 km/h
64 17-06-2008 12:45:03 20.2 C 5.77 g/m*3 20.2 C 0 km/h
65 17-06-2008 12:57:03 20.1 C 6.95 g/m*3 20.1 C 0 km/h
66 17-06-2008 13:09:02 20.2 C 7.34 g/m*3 20.2 C 0 km/h
67 17-06-2008 13:21:02 20.4 C 7.43 g/m*3 20.4 C 0 km/h
68 17-06-2008 13:33:02 21.3 C 7.08 g/m*3 21.3 C 0 km/h
69 17-06-2008 13:45:01 22 C 5.24 g/m*3 22 C 0 km/h
70 17-06-2008 13:57:01 23.2 C 4.99 g/m*3 23.2 C 0 km/h
71 17-06-2008 14:09:02 23.2 C 4.57 g/m*3 23.2 C 0 km/h
72 17-06-2008 14:21:02 23.8 C 5.38 g/m*3 23.8 C 0 km/h
73 17-06-2008 14:33:02 24.1 C 5.47 g/m*3 24.1 C 0 km/h
74 17-06-2008 14:45:02 24.5 C 4.7 g/m*3 24.5 C 0 km/h
75 17-06-2008 14:57:02 24.9 C 4.81 g/m*3 24.9 C 0 km/h
Sensor: Nr:Datum:Temp:Abs-Feuchte:Windchill:Wind:
Aussen-T/F 76 17-06-2008 15:09:02 25.1 C 4.86 g/m*3 25.1 C 0 km/h
77 17-06-2008 15:21:02 25.2 C 4.66 g/m*3 25.2 C 0 km/h
78 17-06-2008 15:33:02 26.6 C 5.03 g/m*3 26.6 C 0 km/h
79 17-06-2008 15:45:02 27.1 C 5.18 g/m*3 27.1 C 0 km/h
80 17-06-2008 15:57:02 25.8 C 4.82 g/m*3 25.8 C 0 km/h
81 17-06-2008 16:09:02 25.4 C 4.71 g/m*3 25.4 C 0 km/h
82 17-06-2008 16:21:02 25.7 C 4.79 g/m*3 25.7 C 0 km/h
83 17-06-2008 16:33:03 26.9 C 5.12 g/m*3 26.9 C 0 km/h
84 17-06-2008 16:45:02 28.8 C 5.68 g/m*3 28.8 C 0 km/h
85 17-06-2008 16:57:02 29 C 5.74 g/m*3 29 C 0 km/h
86 17-06-2008 17:09:02 28 C 5.44 g/m*3 28 C 0 km/h
87 17-06-2008 17:21:02 25.7 C 4.79 g/m*3 25.7 C 0 km/h
88 17-06-2008 17:33:02 25.4 C 5.89 g/m*3 25.4 C 0 km/h
89 17-06-2008 17:45:02 25.2 C 6.29 g/m*3 25.2 C 0 km/h
90 17-06-2008 17:57:02 24.9 C 5.95 g/m*3 24.9 C 0 km/h
91 17-06-2008 18:09:02 26.7 C 5.06 g/m*3 26.7 C 0 km/h
92 17-06-2008 18:21:02 28.5 C 5.59 g/m*3 28.5 C 0 km/h
93 17-06-2008 18:33:02 27 C 5.15 g/m*3 27 C 0 km/h
94 17-06-2008 18:45:02 25.5 C 6.39 g/m*3 25.5 C 0 km/h
95 17-06-2008 18:57:02 24.3 C 6.64 g/m*3 24.3 C 0 km/h
96 17-06-2008 19:09:02 23.4 C 6.73 g/m*3 23.4 C 0 km/h
97 17-06-2008 19:21:03 23.1 C 6.82 g/m*3 23.1 C 0 km/h
98 17-06-2008 19:33:02 22.5 C 7.19 g/m*3 22.5 C 0 km/h
99 17-06-2008 19:45:02 21.9 C 7.14 g/m*3 21.9 C 0 km/h
100 17-06-2008 19:57:03 21.5 C 6.98 g/m*3 21.5 C 0 km/h
Sensor: Nr:Datum:Temp:Abs-Feuchte:Windchill:Wind:
Aussen-T/F 101 17-06-2008 20:09:01 21.2 C 7.23 g/m*3 21.2 C 0 km/h
102 17-06-2008 20:21:01 20.8 C 7.06 g/m*3 20.8 C 0 km/h
103 17-06-2008 20:33:02 20.5 C 6.76 g/m*3 20.5 C 0 km/h
104 17-06-2008 20:45:02 20.2 C 6.12 g/m*3 20.2 C 0 km/h
105 17-06-2008 20:57:02 20 C 6.22 g/m*3 20 C 0 km/h
106 17-06-2008 21:09:02 19.8 C 6.49 g/m*3 19.8 C 0 km/h
107 17-06-2008 21:21:02 19.4 C 6.34 g/m*3 19.4 C 0 km/h
108 17-06-2008 21:33:02 19 C 6.36 g/m*3 19 C 0 km/h
109 17-06-2008 21:45:02 18.7 C 6.4 g/m*3 18.7 C 0 km/h
110 17-06-2008 21:57:02 18.2 C 6.68 g/m*3 18.2 C 0 km/h
111 17-06-2008 22:09:02 17.7 C 6.79 g/m*3 17.7 C 0 km/h
112 17-06-2008 22:21:02 17.8 C 6.98 g/m*3 17.8 C 0 km/h
113 17-06-2008 22:34:02 17.4 C 6.82 g/m*3 17.4 C 0 km/h
114 17-06-2008 22:46:02 17.2 C 7.03 g/m*3 17.2 C 0 km/h
115 17-06-2008 22:58:02 17.2 C 7.18 g/m*3 17.2 C 0 km/h
116 17-06-2008 23:10:02 17.3 C 7.22 g/m*3 17.3 C 0 km/h
117 17-06-2008 23:22:02 17.2 C 7.47 g/m*3 17.2 C 0 km/h
118 17-06-2008 23:34:02 17.1 C 7.42 g/m*3 17.1 C 0 km/h
119 17-06-2008 23:46:02 16.7 C 7.39 g/m*3 16.7 C 0 km/h
120 17-06-2008 23:58:02 16.5 C 7.72 g/m*3 16.5 C 0 km/h
121 18-06-2008 00:10:03 16.3 C 7.91 g/m*3 16.3 C 0 km/h
122 18-06-2008 00:22:03 16.3 C 8.05 g/m*3 16.3 C 0 km/h
123 18-06-2008 00:34:03 16.4 C 8.1 g/m*3 16.4 C 0 km/h
124 18-06-2008 00:46:03 16.6 C 8.05 g/m*3 16.6 C 0 km/h
125 18-06-2008 00:58:03 16.7 C 8.1 g/m*3 16.7 C 0 km/h
Sensor: Nr:Datum:Temp:Abs-Feuchte:Windchill:Wind:
Aussen-T/F 126 18-06-2008 01:10:03 16.2 C 8.27 g/m*3 16.2 C 0 km/h
127 18-06-2008 01:22:03 16 C 8.45 g/m*3 16 C 0 km/h
128 18-06-2008 01:34:03 15.7 C 8.3 g/m*3 15.7 C 0 km/h
129 18-06-2008 01:46:03 15.5 C 8.2 g/m*3 15.5 C 0 km/h
130 18-06-2008 01:58:03 15.4 C 8.41 g/m*3 15.4 C 0 km/h
131 18-06-2008 02:10:03 15.6 C 8.51 g/m*3 15.6 C 0 km/h
132 18-06-2008 02:22:03 15.3 C 8.49 g/m*3 15.3 C 0 km/h
133 18-06-2008 02:34:03 15.2 C 8.57 g/m*3 15.2 C 0 km/h
134 18-06-2008 02:46:03 15.1 C 8.64 g/m*3 15.1 C 0 km/h
135 18-06-2008 02:58:03 15.1 C 8.77 g/m*3 15.1 C 0 km/h
136 18-06-2008 03:10:03 15.1 C 8.77 g/m*3 15.1 C 0 km/h
137 18-06-2008 03:22:03 15 C 8.59 g/m*3 15 C 0 km/h
138 18-06-2008 03:34:03 14.7 C 8.81 g/m*3 14.7 C 0 km/h
139 18-06-2008 03:46:03 14.4 C 8.78 g/m*3 14.4 C 0 km/h
140 18-06-2008 03:58:03 14 C 8.56 g/m*3 14 C 0 km/h
141 18-06-2008 04:10:04 13.8 C 8.7 g/m*3 13.8 C 0 km/h
142 18-06-2008 04:22:04 13.6 C 8.83 g/m*3 13.6 C 0 km/h
143 18-06-2008 04:34:04 13.4 C 8.6 g/m*3 13.4 C 0 km/h
144 18-06-2008 04:46:04 13.2 C 8.84 g/m*3 13.2 C 0 km/h
145 18-06-2008 04:58:04 13 C 8.85 g/m*3 13 C 0 km/h
146 18-06-2008 05:10:04 12.8 C 8.85 g/m*3 12.8 C 0 km/h
147 18-06-2008 05:22:04 12.6 C 8.85 g/m*3 12.6 C 0 km/h
148 18-06-2008 05:34:04 12.5 C 8.91 g/m*3 12.5 C 0 km/h
149 18-06-2008 05:46:04 12.4 C 8.74 g/m*3 12.4 C 0 km/h
150 18-06-2008 05:58:04 12.3 C 8.8 g/m*3 12.3 C 0 km/h
Sensor: Nr:Datum:Temp:Abs-Feuchte:Windchill:Wind:
Aussen-T/F 151 18-06-2008 06:10:04 12.3 C 8.8 g/m*3 12.3 C 0 km/h
152 18-06-2008 06:22:04 12.4 C 8.85 g/m*3 12.4 C 0 km/h
153 18-06-2008 06:34:04 12.5 C 8.91 g/m*3 12.5 C 0 km/h
154 18-06-2008 06:46:04 12.5 C 8.91 g/m*3 12.5 C 0 km/h
155 18-06-2008 06:58:04 12.5 C 8.8 g/m*3 12.5 C 0 km/h
156 18-06-2008 07:10:03 12.6 C 8.85 g/m*3 12.6 C 0 km/h
157 18-06-2008 07:22:02 12.8 C 8.96 g/m*3 12.8 C 0 km/h
158 18-06-2008 07:34:02 12.8 C 8.96 g/m*3 12.8 C 0 km/h
159 18-06-2008 07:46:02 13.1 C 9.01 g/m*3 13.1 C 0 km/h
160 18-06-2008 07:58:02 13.4 C 9.18 g/m*3 13.4 C 0 km/h
161 18-06-2008 08:10:01 13.8 C 9.17 g/m*3 13.8 C 0 km/h
162 18-06-2008 08:22:01 14.1 C 9.1 g/m*3 14.1 C 0 km/h
163 18-06-2008 08:34:02 14.5 C 9.08 g/m*3 14.5 C 0 km/h
164 18-06-2008 08:46:02 14.9 C 9.18 g/m*3 14.9 C 0 km/h
165 18-06-2008 08:58:02 15.4 C 9.07 g/m*3 15.4 C 0 km/h
166 18-06-2008 09:10:02 16.1 C 9.05 g/m*3 16.1 C 0 km/h
167 18-06-2008 09:22:02 16.7 C 8.81 g/m*3 16.7 C 0 km/h
168 18-06-2008 09:34:02 17.4 C 8.6 g/m*3 17.4 C 0 km/h
169 18-06-2008 09:46:02 18 C 8.45 g/m*3 18 C 0 km/h
170 18-06-2008 09:58:03 18.7 C 8.49 g/m*3 18.7 C 0 km/h
171 18-06-2008 10:10:01 18.9 C 7.61 g/m*3 18.9 C 0 km/h
172 18-06-2008 10:22:02 19.7 C 7.3 g/m*3 19.7 C 0 km/h
173 18-06-2008 10:34:02 20 C 6.39 g/m*3 20 C 0 km/h
174 18-06-2008 10:46:02 20.5 C 6.58 g/m*3 20.5 C 0 km/h
175 18-06-2008 10:58:02 21.4 C 6 g/m*3 21.4 C 0 km/h
Sensor: Nr:Datum:Temp:Abs-Feuchte:Windchill:Wind:
Aussen-T/F 176 18-06-2008 11:10:02 21.9 C 5.79 g/m*3 21.9 C 0 km/h
177 18-06-2008 11:22:02 22.1 C 4.88 g/m*3 22.1 C 0 km/h
178 18-06-2008 11:34:02 23.3 C 5.02 g/m*3 23.3 C 0 km/h
179 18-06-2008 11:46:02 23.4 C 4.42 g/m*3 23.4 C 0 km/h
180 18-06-2008 11:58:02 23.6 C 4.68 g/m*3 23.6 C 0 km/h
181 18-06-2008 12:10:01 23.7 C 4.92 g/m*3 23.7 C 0 km/h
182 18-06-2008 12:22:01 24.3 C 4.65 g/m*3 24.3 C 0 km/h
183 18-06-2008 12:34:02 25.3 C 4.68 g/m*3 25.3 C 0 km/h
184 18-06-2008 12:46:02 25.3 C 4.68 g/m*3 25.3 C 0 km/h
185 18-06-2008 12:58:02 24 C 4.57 g/m*3 24 C 0 km/h
186 18-06-2008 13:10:02 25.4 C 4.71 g/m*3 25.4 C 0 km/h
187 18-06-2008 13:22:02 27 C 5.15 g/m*3 27 C 0 km/h
188 18-06-2008 13:34:03 26.3 C 4.95 g/m*3 26.3 C 0 km/h
189 18-06-2008 13:46:01 26.1 C 4.9 g/m*3 26.1 C 0 km/h
190 18-06-2008 13:58:01 26.6 C 5.03 g/m*3 26.6 C 0 km/h
191 18-06-2008 14:10:02 26.1 C 4.9 g/m*3 26.1 C 0 km/h
192 18-06-2008 14:22:02 25.6 C 4.76 g/m*3 25.6 C 0 km/h
193 18-06-2008 14:34:02 26.4 C 4.98 g/m*3 26.4 C 0 km/h
194 18-06-2008 14:46:02 27.2 C 5.2 g/m*3 27.2 C 0 km/h
195 18-06-2008 14:58:02 26.8 C 5.09 g/m*3 26.8 C 0 km/h
196 18-06-2008 15:10:02 27.4 C 5.26 g/m*3 27.4 C 0 km/h
197 18-06-2008 15:22:02 27.2 C 5.2 g/m*3 27.2 C 0 km/h
198 18-06-2008 15:34:02 27.6 C 5.32 g/m*3 27.6 C 0 km/h
199 18-06-2008 15:46:02 26.8 C 5.09 g/m*3 26.8 C 0 km/h
200 18-06-2008 15:58:02 27.3 C 5.23 g/m*3 27.3 C 0 km/h
Sensor: Nr:Datum:Temp:Abs-Feuchte:Windchill:Wind:
Aussen-T/F 201 18-06-2008 16:10:02 27.7 C 5.35 g/m*3 27.7 C 0 km/h
202 18-06-2008 16:22:03 28.4 C 5.56 g/m*3 28.4 C 0 km/h
203 18-06-2008 16:34:02 28.2 C 5.5 g/m*3 28.2 C 0 km/h
204 18-06-2008 16:46:02 27.8 C 5.38 g/m*3 27.8 C 0 km/h
205 18-06-2008 16:58:02 27.3 C 5.23 g/m*3 27.3 C 0 km/h
206 18-06-2008 17:10:02 26.4 C 4.98 g/m*3 26.4 C 0 km/h
207 18-06-2008 17:22:02 27.9 C 5.41 g/m*3 27.9 C 0 km/h
208 18-06-2008 17:34:02 27.6 C 5.32 g/m*3 27.6 C 0 km/h
209 18-06-2008 17:46:03 26.4 C 5.23 g/m*3 26.4 C 0 km/h
210 18-06-2008 17:58:03 27.9 C 5.41 g/m*3 27.9 C 0 km/h
211 18-06-2008 18:10:02 27 C 5.15 g/m*3 27 C 0 km/h
212 18-06-2008 18:22:02 26.9 C 5.12 g/m*3 26.9 C 0 km/h
213 18-06-2008 18:34:02 27.2 C 5.2 g/m*3 27.2 C 0 km/h
214 18-06-2008 18:46:02 27.6 C 5.32 g/m*3 27.6 C 0 km/h
215 18-06-2008 18:58:02 27.3 C 5.23 g/m*3 27.3 C 0 km/h
216 18-06-2008 19:10:02 27.1 C 5.18 g/m*3 27.1 C 0 km/h
217 18-06-2008 19:22:02 26.1 C 5.14 g/m*3 26.1 C 0 km/h
218 18-06-2008 19:34:02 25.9 C 5.81 g/m*3 25.9 C 0 km/h
219 18-06-2008 19:46:01 26.3 C 6.19 g/m*3 26.3 C 0 km/h
220 18-06-2008 19:58:01 27.4 C 5.53 g/m*3 27.4 C 0 km/h
221 18-06-2008 20:10:01 26.5 C 6.01 g/m*3 26.5 C 0 km/h
222 18-06-2008 20:22:02 25.8 C 6.26 g/m*3 25.8 C 0 km/h
223 18-06-2008 20:34:01 24.4 C 6.23 g/m*3 24.4 C 0 km/h
224 18-06-2008 20:46:02 23.5 C 6.56 g/m*3 23.5 C 0 km/h
225 18-06-2008 20:58:02 22.7 C 6.47 g/m*3 22.7 C 0 km/h
Sensor: Nr:Datum:Temp:Abs-Feuchte:Windchill:Wind:
Aussen-T/F 226 18-06-2008 21:10:02 22.6 C 6.83 g/m*3 22.6 C 0 km/h
227 18-06-2008 21:22:01 22.2 C 6.87 g/m*3 22.2 C 0 km/h
228 18-06-2008 21:34:02 21.5 C 6.98 g/m*3 21.5 C 0 km/h
229 18-06-2008 21:46:02 21 C 6.78 g/m*3 21 C 0 km/h
230 18-06-2008 21:58:02 20.7 C 7.2 g/m*3 20.7 C 0 km/h
231 18-06-2008 22:11:03 20.1 C 6.95 g/m*3 20.1 C 0 km/h
232 18-06-2008 22:23:03 20.2 C 6.99 g/m*3 20.2 C 0 km/h
233 18-06-2008 22:35:03 20 C 6.91 g/m*3 20 C 0 km/h
234 18-06-2008 22:47:03 20.1 C 6.61 g/m*3 20.1 C 0 km/h
235 18-06-2008 22:59:03 20 C 6.57 g/m*3 20 C 0 km/h
236 18-06-2008 23:11:03 19.9 C 6.7 g/m*3 19.9 C 0 km/h
237 18-06-2008 23:23:03 19.8 C 7 g/m*3 19.8 C 0 km/h
238 18-06-2008 23:35:03 19.5 C 7.05 g/m*3 19.5 C 0 km/h
239 18-06-2008 23:47:03 19.1 C 7.05 g/m*3 19.1 C 0 km/h
240 18-06-2008 23:59:04 18.8 C 7.25 g/m*3 18.8 C 0 km/h
241 19-06-2008 00:11:04 18.6 C 7.16 g/m*3 18.6 C 0 km/h
242 19-06-2008 00:23:04 18.5 C 7.12 g/m*3 18.5 C 0 km/h
243 19-06-2008 00:35:04 18.3 C 7.35 g/m*3 18.3 C 0 km/h
244 19-06-2008 00:47:04 18.2 C 7.15 g/m*3 18.2 C 0 km/h
245 19-06-2008 00:59:04 17.9 C 7.33 g/m*3 17.9 C 0 km/h
246 19-06-2008 01:11:04 17.6 C 7.35 g/m*3 17.6 C 0 km/h
247 19-06-2008 01:23:04 17.5 C 7.31 g/m*3 17.5 C 0 km/h
248 19-06-2008 01:35:04 17.5 C 7.6 g/m*3 17.5 C 0 km/h
249 19-06-2008 01:47:04 16.9 C 7.77 g/m*3 16.9 C 0 km/h
250 19-06-2008 01:59:04 17 C 7.38 g/m*3 17 C 0 km/h
Sensor: Nr:Datum:Temp:Abs-Feuchte:Windchill:Wind:
Aussen-T/F 251 19-06-2008 02:11:04 16.9 C 7.48 g/m*3 16.9 C 0 km/h
252 19-06-2008 02:23:04 17 C 7.38 g/m*3 17 C 0 km/h
253 19-06-2008 02:35:04 16.8 C 7.72 g/m*3 16.8 C 0 km/h
254 19-06-2008 02:47:04 16.5 C 7.86 g/m*3 16.5 C 0 km/h
255 19-06-2008 02:59:04 16.5 C 7.86 g/m*3 16.5 C 0 km/h
256 19-06-2008 03:11:04 16.3 C 7.91 g/m*3 16.3 C 0 km/h
257 19-06-2008 03:23:04 16.2 C 7.86 g/m*3 16.2 C 0 km/h
258 19-06-2008 03:35:04 16.2 C 7.72 g/m*3 16.2 C 0 km/h
259 19-06-2008 03:47:04 16.3 C 7.63 g/m*3 16.3 C 0 km/h
260 19-06-2008 03:59:05 15.9 C 8.26 g/m*3 15.9 C 0 km/h
261 19-06-2008 04:11:05 15.6 C 8.38 g/m*3 15.6 C 0 km/h
262 19-06-2008 04:23:05 15.7 C 8.43 g/m*3 15.7 C 0 km/h
263 19-06-2008 04:35:05 15.6 C 8.38 g/m*3 15.6 C 0 km/h
264 19-06-2008 04:47:05 15.7 C 8.16 g/m*3 15.7 C 0 km/h
265 19-06-2008 04:59:05 16 C 7.63 g/m*3 16 C 0 km/h
266 19-06-2008 05:11:05 16 C 7.77 g/m*3 16 C 0 km/h
267 19-06-2008 05:23:05 16 C 7.9 g/m*3 16 C 0 km/h
268 19-06-2008 05:35:05 16 C 7.9 g/m*3 16 C 0 km/h
269 19-06-2008 05:47:05 15.6 C 8.11 g/m*3 15.6 C 0 km/h
270 19-06-2008 05:59:05 15.5 C 8.2 g/m*3 15.5 C 0 km/h
271 19-06-2008 06:11:05 15.6 C 8.25 g/m*3 15.6 C 0 km/h
272 19-06-2008 06:23:05 15.8 C 8.35 g/m*3 15.8 C 0 km/h
273 19-06-2008 06:35:05 15.8 C 8.21 g/m*3 15.8 C 0 km/h
274 19-06-2008 06:47:05 15.9 C 8.26 g/m*3 15.9 C 0 km/h
275 19-06-2008 06:59:05 15.9 C 8.4 g/m*3 15.9 C 0 km/h
Sensor: Nr:Datum:Temp:Abs-Feuchte:Windchill:Wind:
Aussen-T/F 276 19-06-2008 07:11:02 16 C 8.31 g/m*3 16 C 0 km/h
277 19-06-2008 07:23:02 16.2 C 8.41 g/m*3 16.2 C 0 km/h
278 19-06-2008 07:35:02 16.3 C 8.46 g/m*3 16.3 C 0 km/h
279 19-06-2008 07:47:02 16.5 C 8.57 g/m*3 16.5 C 0 km/h
280 19-06-2008 07:59:02 16.7 C 8.67 g/m*3 16.7 C 0 km/h
281 19-06-2008 08:11:02 17.6 C 8.55 g/m*3 17.6 C 0 km/h
282 19-06-2008 08:23:01 17.8 C 8.35 g/m*3 17.8 C 0 km/h
283 19-06-2008 08:35:02 18.2 C 8.39 g/m*3 18.2 C 0 km/h
284 19-06-2008 08:47:02 18.8 C 8.54 g/m*3 18.8 C 0 km/h
285 19-06-2008 08:59:02 19 C 7.99 g/m*3 19 C 0 km/h
286 19-06-2008 09:11:02 18.7 C 7.2 g/m*3 18.7 C 0 km/h
287 19-06-2008 09:23:02 18.5 C 7.12 g/m*3 18.5 C 0 km/h
288 19-06-2008 09:35:02 19 C 6.84 g/m*3 19 C 0 km/h
289 19-06-2008 09:47:02 18.8 C 6.93 g/m*3 18.8 C 0 km/h
290 19-06-2008 09:59:03 19.2 C 7.09 g/m*3 19.2 C 0 km/h
291 19-06-2008 10:11:01 19.5 C 6.88 g/m*3 19.5 C 0 km/h
292 19-06-2008 10:23:02 19.8 C 7.17 g/m*3 19.8 C 0 km/h
293 19-06-2008 10:35:02 20.5 C 6.94 g/m*3 20.5 C 0 km/h
294 19-06-2008 10:47:02 21.2 C 6.86 g/m*3 21.2 C 0 km/h
295 19-06-2008 10:59:02 21.5 C 6.79 g/m*3 21.5 C 0 km/h
296 19-06-2008 11:11:02 22.1 C 6.25 g/m*3 22.1 C 0 km/h
297 19-06-2008 11:23:02 22.9 C 6.54 g/m*3 22.9 C 0 km/h
298 19-06-2008 11:35:02 23.2 C 6.03 g/m*3 23.2 C 0 km/h
299 19-06-2008 11:47:02 23.6 C 5.74 g/m*3 23.6 C 0 km/h
300 19-06-2008 11:59:02 23.9 C 5.62 g/m*3 23.9 C 0 km/h
Sensor: Nr:Datum:Temp:Abs-Feuchte:Windchill:Wind:
Aussen-T/F 301 19-06-2008 12:11:02 25.1 C 5.09 g/m*3 25.1 C 0 km/h
302 19-06-2008 12:23:03 23.8 C 5.38 g/m*3 23.8 C 0 km/h
303 19-06-2008 12:35:02 23.7 C 5.56 g/m*3 23.7 C 0 km/h
304 19-06-2008 12:47:02 23.9 C 5.84 g/m*3 23.9 C 0 km/h
305 19-06-2008 12:59:02 24.5 C 5.6 g/m*3 24.5 C 0 km/h
306 19-06-2008 13:11:01 24.5 C 5.6 g/m*3 24.5 C 0 km/h
307 19-06-2008 13:23:02 26.2 C 5.17 g/m*3 26.2 C 0 km/h
308 19-06-2008 13:35:02 25.9 C 5.57 g/m*3 25.9 C 0 km/h
309 19-06-2008 13:47:02 25.7 C 5.75 g/m*3 25.7 C 0 km/h
310 19-06-2008 13:59:02 25.8 C 5.54 g/m*3 25.8 C 0 km/h
311 19-06-2008 14:11:02 25.8 C 5.54 g/m*3 25.8 C 0 km/h
312 19-06-2008 14:23:02 25.6 C 5.48 g/m*3 25.6 C 0 km/h
313 19-06-2008 14:35:03 25.3 C 5.15 g/m*3 25.3 C 0 km/h
314 19-06-2008 14:47:02 25.1 C 5.09 g/m*3 25.1 C 0 km/h
315 19-06-2008 14:59:02 25.7 C 5.51 g/m*3 25.7 C 0 km/h
316 19-06-2008 15:11:02 25.7 C 5.75 g/m*3 25.7 C 0 km/h
317 19-06-2008 15:23:02 25.9 C 6.05 g/m*3 25.9 C 0 km/h
318 19-06-2008 15:35:01 26.1 C 5.88 g/m*3 26.1 C 0 km/h
319 19-06-2008 15:47:02 26.7 C 5.82 g/m*3 26.7 C 0 km/h
320 19-06-2008 15:59:02 26.1 C 5.88 g/m*3 26.1 C 0 km/h
321 19-06-2008 16:11:02 25.2 C 6.05 g/m*3 25.2 C 0 km/h
322 19-06-2008 16:23:02 26.4 C 6.22 g/m*3 26.4 C 0 km/h
323 19-06-2008 16:35:02 26.5 C 6.26 g/m*3 26.5 C 0 km/h
324 19-06-2008 16:47:02 26.4 C 6.22 g/m*3 26.4 C 0 km/h
325 19-06-2008 16:59:02 26.1 C 6.12 g/m*3 26.1 C 0 km/h
Sensor: Nr:Datum:Temp:Abs-Feuchte:Windchill:Wind:
Aussen-T/F 326 19-06-2008 17:11:03 26.5 C 6.26 g/m*3 26.5 C 0 km/h
327 19-06-2008 17:23:02 26.3 C 6.44 g/m*3 26.3 C 0 km/h
328 19-06-2008 17:35:02 25.9 C 6.78 g/m*3 25.9 C 0 km/h
329 19-06-2008 17:47:02 26.1 C 7.1 g/m*3 26.1 C 0 km/h
330 19-06-2008 17:59:02 25.7 C 7.18 g/m*3 25.7 C 0 km/h
331 19-06-2008 18:11:02 24.8 C 7.06 g/m*3 24.8 C 0 km/h
332 19-06-2008 18:23:02 24.7 C 7.02 g/m*3 24.7 C 0 km/h
333 19-06-2008 18:35:02 24.6 C 7.2 g/m*3 24.6 C 0 km/h
334 19-06-2008 18:47:02 25.6 C 7.14 g/m*3 25.6 C 0 km/h
335 19-06-2008 18:59:02 26.3 C 7.18 g/m*3 26.3 C 0 km/h
336 19-06-2008 19:11:01 25.7 C 7.18 g/m*3 25.7 C 0 km/h
337 19-06-2008 19:23:01 24.2 C 7.26 g/m*3 24.2 C 0 km/h
338 19-06-2008 19:35:02 23.9 C 7.79 g/m*3 23.9 C 0 km/h
339 19-06-2008 19:47:01 23.6 C 7.66 g/m*3 23.6 C 0 km/h
340 19-06-2008 19:59:01 23.3 C 7.74 g/m*3 23.3 C 0 km/h
341 19-06-2008 20:11:02 23.2 C 7.69 g/m*3 23.2 C 0 km/h
342 19-06-2008 20:23:01 23 C 7.81 g/m*3 23 C 0 km/h
343 19-06-2008 20:35:01 22.6 C 8.04 g/m*3 22.6 C 0 km/h
344 19-06-2008 20:47:03 22.3 C 8.1 g/m*3 22.3 C 0 km/h
345 19-06-2008 20:59:03 21.9 C 8.3 g/m*3 21.9 C 0 km/h
346 19-06-2008 21:11:02 21.9 C 8.3 g/m*3 21.9 C 0 km/h
347 19-06-2008 21:23:02 21.6 C 8.35 g/m*3 21.6 C 0 km/h
348 19-06-2008 21:35:03 21.6 C 8.35 g/m*3 21.6 C 0 km/h
349 19-06-2008 21:47:02 21.4 C 8.25 g/m*3 21.4 C 0 km/h
350 19-06-2008 21:59:02 21.5 C 8.49 g/m*3 21.5 C 0 km/h
Sensor: Nr:Datum:Temp:Abs-Feuchte:Windchill:Wind:
Aussen-T/F 351 19-06-2008 22:11:02 21.4 C 8.44 g/m*3 21.4 C 0 km/h
352 19-06-2008 22:23:02 18.9 C 11.83 g/m*3 18.9 C 0 km/h
353 19-06-2008 22:35:02 17.8 C 12.45 g/m*3 17.8 C 0 km/h
354 19-06-2008 22:47:02 17.6 C 12.75 g/m*3 17.6 C 0 km/h
355 19-06-2008 22:59:02 17.5 C 12.82 g/m*3 17.5 C 0 km/h
356 19-06-2008 23:11:02 17.4 C 12.89 g/m*3 17.4 C 0 km/h
357 19-06-2008 23:23:02 17.9 C 13.44 g/m*3 17.9 C 0 km/h
358 19-06-2008 23:35:02 17.5 C 13.12 g/m*3 17.5 C 0 km/h
359 19-06-2008 23:47:02 17.4 C 13.04 g/m*3 17.4 C 0 km/h
360 19-06-2008 23:59:02 16.8 C 12.58 g/m*3 16.8 C 0 km/h

Legende:
   Min
   Max


Maximal/Minimal-Werte vom 17.06.2008 - 19.06.2008

Sensor Min Max Avg
Temp
(Aussen-T/F)
8.8 °C
17-06-2008  05:45:04
29 °C
17-06-2008  16:57:02
19.44 °C
Abs-Feuchte
(Aussen-T/F)
4.42 g/m*3
18-06-2008  11:46:02
13.44 g/m*3
19-06-2008  23:23:02
7.03 g/m*3
Windchill
(Aussen-T/F)
8.8 C
17-06-2008  05:45:04
29 C
17-06-2008  16:57:02
19.39 C

Die Daten stammen von einer Davis Vantage Pro 2 Wetter-Station und werden unter Linux mit der Software wview2wettercgi und aufbereitet. Alle Angaben erfolgen ohne Gewähr für ihre Vollständigkeit oder Richtigkeit.
Kontakt: Rainer Krienke krienke@uni-koblenz.de . Meine Webseiten an der Uni Koblenz oder privat.
Version: $Revision: 0.78 $